createdAt,value
2023-02-06T00:01:58.533Z,81603.75
2023-02-06T00:07:00.115Z,81597.72
2023-02-06T00:12:01.602Z,81603.75
2023-02-06T00:17:03.025Z,81607.78
2023-02-06T00:22:04.495Z,81615.78
2023-02-06T00:27:06.150Z,81611.78
2023-02-06T00:32:07.636Z,81621.81
2023-02-06T00:37:09.082Z,81621.81
2023-02-06T00:42:10.566Z,81615.78
2023-02-06T00:47:12.059Z,81615.78
2023-02-06T00:52:13.579Z,81611.78
2023-02-06T00:57:15.057Z,81613.78
2023-02-06T01:02:16.560Z,81617.81
2023-02-06T01:07:17.966Z,81625.84
2023-02-06T01:12:19.443Z,81625.84
2023-02-06T01:17:20.952Z,81617.81
2023-02-06T01:22:22.447Z,81615.78
2023-02-06T01:27:23.947Z,81615.78
2023-02-06T01:32:25.562Z,81633.84
2023-02-06T01:37:29.155Z,81639.88
2023-02-06T01:42:33.335Z,81629.84
2023-02-06T01:47:34.757Z,81639.88
2023-02-06T01:52:36.298Z,81635.88
2023-02-06T01:57:39.147Z,81645.91
2023-02-06T02:02:45.250Z,81649.91
2023-02-06T02:08:04.457Z,81657.94
2023-02-06T02:13:06.089Z,81665.97
2023-02-06T02:18:22.999Z,81661.94
2023-02-06T02:23:44.391Z,81657.94
2023-02-06T02:28:45.899Z,81667.97
2023-02-06T02:33:53.162Z,81663.97
2023-02-06T02:39:17.853Z,81676.00
2023-02-06T02:44:31.116Z,81674.00
2023-02-06T02:49:37.028Z,81682.03
2023-02-06T02:54:38.482Z,81686.03
2023-02-06T02:59:44.759Z,81676.00
2023-02-06T03:04:51.308Z,81682.03
2023-02-06T03:10:03.455Z,81684.03
2023-02-06T03:15:18.226Z,81682.03
2023-02-06T03:20:20.802Z,81674.00
2023-02-06T03:25:33.231Z,81667.97
2023-02-06T03:30:35.570Z,81669.97
2023-02-06T03:35:39.322Z,81653.94
2023-02-06T03:40:43.262Z,81659.94
2023-02-06T03:45:51.095Z,81669.97
2023-02-06T03:50:56.151Z,81674.00
2023-02-06T03:56:04.434Z,81674.00
2023-02-06T04:01:07.877Z,81661.94
2023-02-06T04:06:09.618Z,81667.97
2023-02-06T04:11:11.299Z,81655.94
2023-02-06T04:16:12.763Z,81653.94
2023-02-06T04:21:14.240Z,81655.94
2023-02-06T04:26:15.737Z,81659.94
2023-02-06T04:31:17.197Z,81661.94
2023-02-06T04:36:19.242Z,81665.97
2023-02-06T04:41:20.771Z,81667.97
2023-02-06T04:46:22.331Z,81665.97
2023-02-06T04:51:23.821Z,81665.97
2023-02-06T04:56:25.899Z,81657.94
2023-02-06T05:01:27.424Z,81645.91
2023-02-06T05:06:29.707Z,81639.88
2023-02-06T05:11:31.423Z,81635.88
2023-02-06T05:16:32.952Z,81601.75
2023-02-06T05:21:34.407Z,81573.66
2023-02-06T05:26:35.875Z,81567.63
2023-02-06T05:31:37.509Z,81557.59
2023-02-06T05:36:40.259Z,81527.50
2023-02-06T05:41:41.707Z,81507.44
2023-02-06T05:46:44.148Z,81475.31
2023-02-06T05:51:46.102Z,81459.28
2023-02-06T05:56:47.558Z,81445.22
2023-02-06T06:01:48.990Z,81407.09
2023-02-06T06:06:50.514Z,81395.06
2023-02-06T06:11:51.967Z,81381.00
2023-02-06T06:16:53.418Z,81358.94
2023-02-06T06:21:56.611Z,81346.91
2023-02-06T06:26:59.939Z,81344.88
2023-02-06T06:32:01.376Z,81346.91
2023-02-06T06:37:02.931Z,81344.88
2023-02-06T06:42:04.529Z,81344.88
2023-02-06T06:47:06.069Z,81338.88
2023-02-06T06:52:19.616Z,81336.84
2023-02-06T06:57:25.763Z,81334.84
2023-02-06T07:02:28.533Z,81338.88
2023-02-06T07:07:30.243Z,81332.84
2023-02-06T07:12:32.369Z,81328.84
2023-02-06T07:17:33.823Z,81326.81
2023-02-06T07:22:35.267Z,81318.78
2023-02-06T07:27:36.708Z,81312.78
2023-02-06T07:32:38.398Z,81302.75
2023-02-06T07:37:39.819Z,81294.72
2023-02-06T07:42:41.317Z,81278.66
2023-02-06T07:47:43.822Z,81272.66
2023-02-06T07:52:45.442Z,81264.63
2023-02-06T07:57:46.868Z,81268.63
2023-02-06T08:02:48.303Z,81262.63
2023-02-06T08:07:51.635Z,81254.59
2023-02-06T08:12:53.192Z,81246.56
2023-02-06T08:17:54.642Z,81258.59
2023-02-06T08:22:57.081Z,81242.53
2023-02-06T08:27:58.721Z,81232.50
2023-02-06T08:33:00.407Z,81206.44
2023-02-06T08:38:02.078Z,81188.38
2023-02-06T08:43:03.634Z,81186.38
2023-02-06T08:48:05.289Z,81182.34
2023-02-06T08:53:06.716Z,81178.34
2023-02-06T08:58:08.247Z,81182.34
2023-02-06T09:03:09.676Z,81166.28
2023-02-06T09:08:11.099Z,81150.25
2023-02-06T09:13:12.620Z,81124.16
2023-02-06T09:18:14.040Z,81108.09
2023-02-06T09:23:19.231Z,81076.00
2023-02-06T09:28:20.795Z,81082.03
2023-02-06T09:33:22.412Z,81096.06
2023-02-06T09:38:23.921Z,81082.03
2023-02-06T09:43:25.775Z,81033.88
2023-02-06T09:48:30.504Z,80969.66
2023-02-06T09:53:31.919Z,80925.50
2023-02-06T09:58:43.032Z,80949.59
2023-02-06T10:04:13.883Z,80997.75
2023-02-06T10:09:30.305Z,81021.81
2023-02-06T10:14:43.867Z,81035.88
2023-02-06T10:19:54.370Z,81033.88
2023-02-06T10:25:33.342Z,81019.81
2023-02-06T10:31:01.195Z,80995.75
2023-02-06T10:36:16.188Z,80981.69
2023-02-06T10:41:25.478Z,80993.72
2023-02-06T10:46:42.422Z,80975.66
2023-02-06T10:51:49.086Z,80973.66
2023-02-06T10:56:54.222Z,80985.72
2023-02-06T11:02:11.722Z,80989.72
2023-02-06T11:07:24.953Z,80961.63
2023-02-06T11:12:35.570Z,80921.50
2023-02-06T11:17:37.055Z,80917.47
2023-02-06T11:22:51.110Z,80927.50
2023-02-06T11:27:55.001Z,80877.34
2023-02-06T11:33:04.656Z,80849.25
2023-02-06T11:38:25.873Z,80823.19
2023-02-06T11:43:41.141Z,80775.03
2023-02-06T11:49:02.176Z,80708.81
2023-02-06T11:54:04.238Z,80676.72
2023-02-06T11:59:17.771Z,80712.84
2023-02-06T12:04:25.913Z,80740.91
2023-02-06T12:09:28.087Z,80746.94
2023-02-06T12:14:37.029Z,80771.00
2023-02-06T12:19:50.589Z,80750.94
2023-02-06T12:24:55.196Z,80726.88
2023-02-06T12:29:59.655Z,80684.75
2023-02-06T12:35:16.112Z,80714.84
2023-02-06T12:40:57.334Z,80758.97
2023-02-06T12:46:15.394Z,80752.97
2023-02-06T12:51:27.459Z,80769.00
2023-02-06T12:56:35.654Z,80777.03
2023-02-06T13:02:16.960Z,80837.22
2023-02-06T13:07:23.531Z,80861.31
2023-02-06T13:12:27.343Z,80877.34
2023-02-06T13:17:44.822Z,80887.38
2023-02-06T13:23:08.872Z,80897.41
2023-02-06T13:28:23.009Z,80899.44
2023-02-06T13:33:27.033Z,80901.44
2023-02-06T13:38:37.308Z,80893.41
2023-02-06T13:43:51.279Z,80897.41
2023-02-06T13:49:01.201Z,80893.41
2023-02-06T13:54:30.699Z,80883.38
2023-02-06T13:59:46.447Z,80871.34
2023-02-06T14:04:48.508Z,80883.38
2023-02-06T14:10:13.246Z,80903.44
2023-02-06T14:15:34.976Z,80895.41
2023-02-06T14:20:52.671Z,80907.44
2023-02-06T14:26:24.548Z,80925.50
2023-02-06T14:31:58.700Z,80933.53
2023-02-06T14:37:27.940Z,80929.53
2023-02-06T14:42:36.001Z,80937.56
2023-02-06T14:47:42.430Z,80939.56
2023-02-06T14:52:48.324Z,80961.63
2023-02-06T14:57:49.806Z,80969.66
2023-02-06T15:03:21.452Z,80973.66
2023-02-06T15:08:22.979Z,80983.69
2023-02-06T15:13:34.637Z,81015.81
2023-02-06T15:18:36.622Z,81021.81
2023-02-06T15:23:56.730Z,81031.84
2023-02-06T15:29:04.639Z,81049.91
2023-02-06T15:34:06.090Z,81053.94
2023-02-06T15:39:09.541Z,81047.91
2023-02-06T15:44:23.169Z,81094.06
2023-02-06T15:49:40.098Z,81102.09
2023-02-06T15:54:44.955Z,81102.09
2023-02-06T15:59:46.634Z,81090.03
2023-02-06T16:04:51.667Z,81116.13
2023-02-06T16:10:08.418Z,81134.19
2023-02-06T16:15:34.522Z,81132.19
2023-02-06T16:20:42.772Z,81120.16
2023-02-06T16:25:58.877Z,81120.16
2023-02-06T16:31:05.366Z,81112.13
2023-02-06T16:36:07.519Z,81138.19
2023-02-06T16:41:30.711Z,81156.25
2023-02-06T16:46:32.825Z,81160.28
2023-02-06T16:51:34.498Z,81166.28
2023-02-06T16:56:38.253Z,81188.38
2023-02-06T17:01:39.865Z,81190.38
2023-02-06T17:06:41.456Z,81188.38
2023-02-06T17:11:42.946Z,81176.31
2023-02-06T17:16:44.668Z,81182.34
2023-02-06T17:21:46.427Z,81182.34
2023-02-06T17:26:47.998Z,81178.34
2023-02-06T17:31:49.573Z,81176.31
2023-02-06T17:36:54.367Z,81190.38
2023-02-06T17:41:55.803Z,81188.38
2023-02-06T17:46:57.227Z,81182.34
2023-02-06T17:51:58.709Z,81182.34
2023-02-06T17:57:00.196Z,81184.34
2023-02-06T18:02:01.888Z,81206.44
2023-02-06T18:07:03.539Z,81218.47
2023-02-06T18:12:05.116Z,81218.47
2023-02-06T18:17:07.822Z,81226.50
2023-02-06T18:22:11.621Z,81218.47
2023-02-06T18:27:13.581Z,81246.56
2023-02-06T18:32:15.056Z,81242.53
2023-02-06T18:37:16.562Z,81264.63
2023-02-06T18:42:36.728Z,81278.66
2023-02-06T18:47:39.000Z,81286.69
2023-02-06T18:52:40.454Z,81280.66
2023-02-06T18:57:42.522Z,81284.69
2023-02-06T19:02:44.001Z,81272.66
2023-02-06T19:07:50.534Z,81288.69
2023-02-06T19:12:51.986Z,81288.69
2023-02-06T19:17:53.453Z,81296.72
2023-02-06T19:22:56.757Z,81296.72
2023-02-06T19:27:58.222Z,81304.75
2023-02-06T19:32:59.762Z,81314.78
2023-02-06T19:38:03.419Z,81310.78
2023-02-06T19:43:04.938Z,81310.78
2023-02-06T19:48:11.881Z,81314.78
2023-02-06T19:53:15.611Z,81322.81
2023-02-06T19:58:18.267Z,81314.78
2023-02-06T20:03:19.762Z,81334.84
2023-02-06T20:08:21.323Z,81346.91
2023-02-06T20:13:23.013Z,81348.91
2023-02-06T20:18:26.608Z,81336.84
2023-02-06T20:23:28.252Z,81344.88
2023-02-06T20:28:30.013Z,81348.91
2023-02-06T20:33:32.667Z,81340.88
2023-02-06T20:38:34.460Z,81334.84
2023-02-06T20:43:37.094Z,81334.84
2023-02-06T20:48:38.658Z,81346.91
2023-02-06T20:53:40.819Z,81348.91
2023-02-06T20:58:43.393Z,81360.94
2023-02-06T21:03:46.458Z,81368.97
2023-02-06T21:08:50.154Z,81362.94
2023-02-06T21:13:51.603Z,81362.94
2023-02-06T21:18:53.973Z,81358.94
2023-02-06T21:23:55.831Z,81368.97
2023-02-06T21:28:58.889Z,81360.94
2023-02-06T21:34:11.103Z,81372.97
2023-02-06T21:39:19.506Z,81401.06
2023-02-06T21:44:23.876Z,81409.09
2023-02-06T21:49:25.787Z,81407.09
2023-02-06T21:54:29.294Z,81447.22
2023-02-06T21:59:33.848Z,81459.28
2023-02-06T22:04:36.699Z,81475.31
2023-02-06T22:09:38.148Z,81489.38
2023-02-06T22:14:39.624Z,81479.34
2023-02-06T22:19:41.089Z,81473.31
2023-02-06T22:24:44.373Z,81481.34
2023-02-06T22:29:46.023Z,81491.38
2023-02-06T22:34:47.616Z,81505.41
2023-02-06T22:39:49.091Z,81507.44
2023-02-06T22:44:50.972Z,81495.38
2023-02-06T22:49:52.801Z,81511.44
2023-02-06T22:54:54.340Z,81505.41
2023-02-06T22:59:55.757Z,81511.44
2023-02-06T23:04:57.194Z,81553.59
2023-02-06T23:09:58.643Z,81559.59
2023-02-06T23:15:00.147Z,81543.56
2023-02-06T23:20:01.765Z,81559.59
2023-02-06T23:25:03.742Z,81551.56
2023-02-06T23:30:05.805Z,81547.56
2023-02-06T23:35:07.769Z,81547.56
2023-02-06T23:40:09.979Z,81549.56
2023-02-06T23:45:11.411Z,81563.63
2023-02-06T23:50:13.087Z,81577.66
2023-02-06T23:55:15.673Z,81571.66
